Thunder radar more information blitzortung!


Radar de pluja more information rain snow radar


Visita la nostra xarxa de llocs de meteo:

Template documentation
and downloads

And another site



No particular awareness of the weather is required.    There are no Weather-warnings

Pagina Historial Weather Underground text

Diari Resum Agost 13, 2017 Unitats:  Imperial    Mètric   Tant
« Previous Dia
SegĂźent Dia »
Diari Setmana Mensual Anual Personalitzada
  Maxima: Minima: Media:
Temperatura: 87.6 °F 60.6 °F 76.6 °F
Punt de rosada: 62.2 °F 51.3 °F 57.9 °F
Humitat: 80 % 39 % 54 %
Wind Speed: 15 mph 0 mph 4 mph
RĂ fegues de vent: 15 mph - -
Vent:- - SSW
Pression baro: 30.1 in 30 in -
Precipitacions: 0 in    
Historical Graphs
 
 
Dades de taula per Agost 13, 2017
Temps Temperatura Punt de rosada Pression baro Vent Wind Speed RĂ fegues de vent Humitat Rainfall Rate (Hourly)
00:01 68.7 °F 53.8 °F 30.1 in Calm     59 % 0 in
00:05 63.3 °F 53.4 °F 30.1 in WNW 1 mph 1 mph 70 % 0 in
00:06 68.7 °F 53.8 °F 30.1 in Calm     59 % 0 in
00:11 68.7 °F 53.8 °F 30.1 in Calm     59 % 0 in
00:15 63.3 °F 53.4 °F 30.1 in Calm   1 mph 70 % 0 in
00:16 68.7 °F 54.3 °F 30.1 in Calm     60 % 0 in
00:21 68.5 °F 53.6 °F 30.1 in WNW 0.9 mph   59 % 0 in
00:25 62.8 °F 52.5 °F 30.1 in Calm   1 mph 69 % 0 in
00:26 68.5 °F 54.1 °F 30.1 in Calm     60 % 0 in
00:31 68.5 °F 54.1 °F 30.1 in Calm     60 % 0 in
00:35 62.6 °F 52.7 °F 30.1 in Calm   1 mph 70 % 0 in
00:36 68.4 °F 54 °F 30.1 in Calm     60 % 0 in
00:45 62.1 °F 52.5 °F 30.1 in Calm     71 % 0 in
00:55 61.9 °F 52 °F 30 in NE 1 mph 1 mph 70 % 0 in
01:05 61.7 °F 51.8 °F 30.1 in Calm   1 mph 70 % 0 in
01:15 61.7 °F 52.2 °F 30.1 in Calm   1 mph 71 % 0 in
01:25 61.7 °F 52.2 °F 30 in Calm     71 % 0 in
01:35 61.5 °F 52 °F 30.1 in Calm   1 mph 71 % 0 in
01:45 61.2 °F 51.3 °F 30.1 in WSW 1 mph 2 mph 70 % 0 in
01:55 60.8 °F 51.3 °F 30.1 in Calm   1 mph 71 % 0 in
02:05 60.8 °F 51.3 °F 30.1 in WSW 2 mph 2 mph 71 % 0 in
02:15 60.8 °F 51.6 °F 30.1 in Calm   1 mph 72 % 0 in
02:25 60.6 °F 51.4 °F 30.1 in Calm     72 % 0 in
02:35 60.8 °F 51.6 °F 30.1 in WSW 1 mph 2 mph 72 % 0 in
02:45 61.7 °F 52.5 °F 30.1 in Calm   1 mph 72 % 0 in
02:55 62.4 °F 52.9 °F 30.1 in SSW 1 mph 2 mph 71 % 0 in
03:05 64.2 °F 53.8 °F 30.1 in Calm     69 % 0 in
03:15 64 °F 53.2 °F 30.1 in SW 1 mph 2 mph 68 % 0 in
03:25 63.5 °F 52.3 °F 30.1 in SW 1 mph 2 mph 67 % 0 in
03:35 64.4 °F 53.6 °F 30.1 in SW 1 mph 2 mph 68 % 0 in
03:45 64.9 °F 53.8 °F 30.1 in SW 1 mph 2 mph 67 % 0 in
03:55 66.2 °F 54.1 °F 30.1 in SW 2 mph 2 mph 65 % 0 in
04:05 66.9 °F 54.9 °F 30.1 in SW 2 mph 2 mph 65 % 0 in
04:15 68.7 °F 55.9 °F 30.1 in SSW 1 mph 1 mph 64 % 0 in
04:25 70.2 °F 56.5 °F 30.1 in South 1 mph 2 mph 62 % 0 in
04:35 70.5 °F 56.5 °F 30.1 in SW 1 mph 2 mph 61 % 0 in
04:45 72.1 °F 57 °F 30.1 in NW 1 mph 2 mph 59 % 0 in
04:55 72.9 °F 57.2 °F 30.1 in NNE 2 mph 5 mph 58 % 0 in
05:05 73 °F 56.8 °F 30.1 in ENE 2 mph 3 mph 57 % 0 in
05:15 73.9 °F 57.7 °F 30.1 in Calm   3 mph 57 % 0 in
05:25 75.2 °F 57.9 °F 30.1 in ESE 1 mph 2 mph 55 % 0 in
05:35 76.3 °F 58.5 °F 30.1 in ESE 1 mph 3 mph 54 % 0 in
05:45 77.4 °F 58.5 °F 30.1 in NE 1 mph 3 mph 52 % 0 in
10:46 76.5 °F 57.6 °F 30.1 in North 3.5 mph 3.5 mph 52 % 0 in
10:47 76.5 °F 57.6 °F 30.1 in North 3.5 mph 3.5 mph 52 % 0 in
10:52 76.8 °F 57.4 °F 30.1 in ESE 2.4 mph 2.4 mph 51 % 0 in
10:57 77.7 °F 57.6 °F 30.1 in WSW 3.3 mph 3.3 mph 50 % 0 in
11:02 77.7 °F 57.6 °F 30.1 in SSW 2.3 mph 2.3 mph 50 % 0 in
11:07 78.8 °F 58.6 °F 30.1 in ENE 2.3 mph 2.3 mph 50 % 0 in
11:12 78.1 °F 56.8 °F 30.1 in ESE 3.8 mph 3.8 mph 48 % 0 in
11:17 78.6 °F 57.9 °F 30.1 in ENE 4.6 mph 4.6 mph 49 % 0 in
11:22 78.8 °F 57.9 °F 30.1 in East 2.4 mph 2.4 mph 49 % 0 in
11:27 80.1 °F 59.2 °F 30.1 in WSW 2.3 mph 2.3 mph 49 % 0 in
11:32 80.2 °F 58.8 °F 30.1 in East 2.4 mph 2.4 mph 48 % 0 in
11:37 80.8 °F 58.6 °F 30.1 in SSE 1.2 mph 1.2 mph 47 % 0 in
11:42 81.9 °F 58.5 °F 30.1 in SSE 3.5 mph 3.5 mph 45 % 0 in
11:47 82.2 °F 59.4 °F 30.1 in SE 2.3 mph 2.3 mph 46 % 0 in
11:52 82.6 °F 59.7 °F 30.1 in ESE 2.6 mph 2.6 mph 46 % 0 in
11:57 82.2 °F 58.8 °F 30.1 in SE 3.5 mph 3.5 mph 45 % 0 in
12:02 81.3 °F 58.6 °F 30.1 in WSW 3.5 mph 3.5 mph 46 % 0 in
12:07 81.5 °F 58.1 °F 30.1 in SW 4.6 mph 4.6 mph 45 % 0 in
12:12 82.6 °F 59.2 °F 30.1 in WSW 4.3 mph 4.3 mph 45 % 0 in
12:17 82.9 °F 59.4 °F 30.1 in East 4.6 mph 4.6 mph 45 % 0 in
12:22 82.2 °F 58.1 °F 30.1 in East 3.5 mph 3.6 mph 44 % 0 in
12:27 82.9 °F 59.4 °F 30.1 in ESE 3.5 mph 3.5 mph 45 % 0 in
12:32 82.8 °F 59.4 °F 30.1 in West 4.6 mph 4.6 mph 45 % 0 in
12:37 83.3 °F 59.7 °F 30.1 in WSW 2.3 mph 2.4 mph 45 % 0 in
12:42 84.9 °F 59.9 °F 30.1 in South 3.5 mph 3.5 mph 43 % 0 in
12:47 84 °F 60.4 °F 30.1 in ESE 4.6 mph 4.6 mph 45 % 0 in
12:52 84.6 °F 60.3 °F 30.1 in South 3.3 mph 3.3 mph 44 % 0 in
12:57 84.6 °F 61 °F 30.1 in ESE 6.9 mph 6.9 mph 45 % 0 in
13:02 82.8 °F 59.9 °F 30 in ESE 5.8 mph 5.8 mph 46 % 0 in
13:07 83.1 °F 60.8 °F 30 in ENE 5.8 mph 5.8 mph 47 % 0 in
13:12 82 °F 59.7 °F 30 in ENE 9.2 mph 9.2 mph 47 % 0 in
13:17 83.3 °F 61.5 °F 30.1 in ESE 6.2 mph 6.2 mph 48 % 0 in
13:22 82.9 °F 61.2 °F 30.1 in East 6.9 mph 7.1 mph 48 % 0 in
13:27 82.2 °F 61.2 °F 30.1 in SSE 8.1 mph 8.1 mph 49 % 0 in
13:32 81.7 °F 61.2 °F 30.1 in ESE 6.9 mph 6.9 mph 50 % 0 in
13:37 81.1 °F 60.6 °F 30.1 in East 8.1 mph 8.1 mph 50 % 0 in
13:42 80.8 °F 61 °F 30.1 in ESE 9.2 mph 9.2 mph 51 % 0 in
13:47 80.8 °F 61 °F 30 in ESE 8.1 mph 8.1 mph 51 % 0 in
13:52 81.9 °F 62.1 °F 30 in East 6.9 mph 6.9 mph 51 % 0 in
13:57 81.9 °F 62.1 °F 30 in ESE 15 mph 15 mph 51 % 0 in
14:02 81.1 °F 60.6 °F 30.1 in ESE 10.4 mph 10.4 mph 50 % 0 in
14:07 81.3 °F 61.5 °F 30.1 in ENE 6 mph 6 mph 51 % 0 in
14:12 81.3 °F 61.5 °F 30.1 in ESE 8.1 mph 8.1 mph 51 % 0 in
14:17 81 °F 61.2 °F 30.1 in NNE 8.1 mph 8.1 mph 51 % 0 in
14:22 80.8 °F 61 °F 30.1 in ESE 9.2 mph 9.2 mph 51 % 0 in
14:27 81 °F 61.2 °F 30.1 in SE 6.2 mph 6.2 mph 51 % 0 in
14:32 80.8 °F 61 °F 30.1 in East 5.8 mph 5.8 mph 51 % 0 in
14:37 81.7 °F 61.9 °F 30.1 in ESE 10.4 mph 10.4 mph 51 % 0 in
14:42 82.8 °F 62.2 °F 30.1 in SE 3.5 mph 3.5 mph 50 % 0 in
14:47 85.1 °F 62.1 °F 30.1 in SSE 4.6 mph 4.6 mph 46 % 0 in
14:52 85.6 °F 61.9 °F 30.1 in SW 8.1 mph 8.1 mph 45 % 0 in
14:57 85.6 °F 61.2 °F 30.1 in SW 12.7 mph 12.7 mph 44 % 0 in
15:02 86 °F 61 °F 30.1 in SW 10.4 mph 10.4 mph 43 % 0 in
15:07 85.6 °F 59.9 °F 30.1 in SW 4.9 mph 4.9 mph 42 % 0 in
15:12 87.1 °F 60.4 °F 30.1 in SW 3.5 mph 3.5 mph 41 % 0 in
15:17 86.2 °F 59.7 °F 30.1 in WSW 9.2 mph 9.2 mph 41 % 0 in
15:22 86.2 °F 59 °F 30.1 in SW 4.6 mph 4.6 mph 40 % 0 in
15:27 85.6 °F 58.5 °F 30.1 in SSW 9.2 mph 9.2 mph 40 % 0 in
15:32 85.8 °F 58.6 °F 30 in WSW 5.8 mph 5.8 mph 40 % 0 in
15:37 87.3 °F 60.1 °F 30 in SE 2.6 mph 2.6 mph 40 % 0 in
15:42 87.3 °F 60.1 °F 30 in SW 8.1 mph 8.1 mph 40 % 0 in
15:47 87.6 °F 60.3 °F 30 in SSW 8.1 mph 8.1 mph 40 % 0 in
15:52 86.9 °F 59.7 °F 30 in SSW 9.2 mph 9.2 mph 40 % 0 in
15:57 86.4 °F 59.2 °F 30 in South 4.6 mph 4.6 mph 40 % 0 in
16:02 86.4 °F 59.2 °F 30 in West 6.9 mph 6.9 mph 40 % 0 in
16:07 86.5 °F 59.4 °F 30 in WSW 9.2 mph 9.2 mph 40 % 0 in
16:12 86.7 °F 59.5 °F 30 in SW 7.4 mph 7.4 mph 40 % 0 in
16:17 86 °F 58.3 °F 30 in WSW 10.4 mph 10.4 mph 39 % 0 in
16:22 86 °F 58.3 °F 30 in SW 9.2 mph 9.2 mph 39 % 0 in
16:27 86.4 °F 58.5 °F 30 in West 9.2 mph 9.2 mph 39 % 0 in
16:32 86.4 °F 58.5 °F 30 in SW 9.2 mph 9.2 mph 39 % 0 in
16:37 86.2 °F 58.3 °F 30 in SW 6.9 mph 6.9 mph 39 % 0 in
16:42 85.5 °F 57.7 °F 30 in SSW 9.2 mph 9.2 mph 39 % 0 in
16:47 85.8 °F 57.9 °F 30 in SSW 8.1 mph 8.1 mph 39 % 0 in
16:52 86.4 °F 58.5 °F 30 in SW 6.9 mph 6.9 mph 39 % 0 in
16:57 86 °F 58.3 °F 30 in SW 5.9 mph 5.9 mph 39 % 0 in
16:59 86 °F 58.3 °F 30 in WNW 5.9 mph 5.9 mph 39 % 0 in
17:04 85.8 °F 57.9 °F 30 in SW 5.8 mph 5.8 mph 39 % 0 in
17:09 85.8 °F 57.9 °F 30 in WSW 6.9 mph 6.9 mph 39 % 0 in
17:14 85.3 °F 57.6 °F 30 in WSW 9.2 mph 9.2 mph 39 % 0 in
17:19 84.9 °F 57.9 °F 30 in SW 8.1 mph 8.1 mph 40 % 0 in
17:24 84.9 °F 57.9 °F 30 in SSW 6.9 mph 6.9 mph 40 % 0 in
17:29 85.1 °F 58.1 °F 30 in SW 9.2 mph 9.2 mph 40 % 0 in
17:34 85.3 °F 58.8 °F 30 in WSW 4.9 mph 4.9 mph 41 % 0 in
17:39 85.5 °F 59.2 °F 30 in SW 3.8 mph 3.8 mph 41 % 0 in
17:44 85.1 °F 58.8 °F 30 in SW 6.9 mph 6.9 mph 41 % 0 in
17:49 84.7 °F 58.5 °F 30 in WSW 4.6 mph 4.6 mph 41 % 0 in
17:54 84.7 °F 58.5 °F 30 in SW 8.1 mph 8.1 mph 41 % 0 in
17:59 84.4 °F 58.8 °F 30 in SW 4.3 mph 4.3 mph 42 % 0 in
18:04 84.6 °F 58.8 °F 30 in WSW 8.1 mph 8.1 mph 42 % 0 in
18:09 84.7 °F 59.2 °F 30 in SW 5.8 mph 5.8 mph 42 % 0 in
18:14 84.2 °F 58.6 °F 30 in South 5.8 mph 5.8 mph 42 % 0 in
18:19 83.5 °F 58.6 °F 30 in SW 9.2 mph 9.2 mph 43 % 0 in
18:24 83.5 °F 58.6 °F 30 in South 4.6 mph 4.6 mph 43 % 0 in
18:29 84 °F 59.2 °F 30 in WSW 7.4 mph 7.4 mph 43 % 0 in
18:34 83.5 °F 58.6 °F 30 in WSW 7.1 mph 7.1 mph 43 % 0 in
18:39 83.1 °F 58.8 °F 30 in SW 6.9 mph 6.9 mph 44 % 0 in
18:44 83.1 °F 58.8 °F 30 in SW 8.1 mph 8.1 mph 44 % 0 in
18:49 83.5 °F 59.4 °F 30 in SSW 3.6 mph 3.6 mph 44 % 0 in
18:54 82.6 °F 57.7 °F 30 in SSW 9.2 mph 9.2 mph 43 % 0 in
18:59 82.6 °F 57.7 °F 30 in SW 7.8 mph 7.8 mph 43 % 0 in
19:04 82 °F 57.9 °F 30 in SW 5.9 mph 5.9 mph 44 % 0 in
19:09 82.2 °F 58.1 °F 30 in SSW 3.5 mph 3.5 mph 44 % 0 in
19:14 82.2 °F 58.1 °F 30 in SW 5.9 mph 5.9 mph 44 % 0 in
19:15 71.1 °F 60.1 °F 30.1 in Calm     68 % 0 in
19:19 81.7 °F 57.6 °F 30 in WSW 5.9 mph 5.9 mph 44 % 0 in
19:24 81.7 °F 57.6 °F 30 in SSW 4.6 mph 4.6 mph 44 % 0 in
19:25 70.9 °F 59.7 °F 30.1 in WSW 1 mph 2 mph 68 % 0 in
19:29 81.5 °F 58.1 °F 30 in WSW 3.5 mph 3.5 mph 45 % 0 in
19:34 81.1 °F 57.7 °F 30 in SW 5.8 mph 5.8 mph 45 % 0 in
19:35 70.9 °F 60.3 °F 30.1 in Calm   2 mph 69 % 0 in
19:39 80.6 °F 57.4 °F 30 in South 8.1 mph 8.1 mph 45 % 0 in
19:44 80.6 °F 57.4 °F 30 in SSE 7.1 mph 7.1 mph 45 % 0 in
19:45 70.5 °F 59.9 °F 30.1 in WSW 1 mph 2 mph 69 % 0 in
19:49 80.1 °F 57.4 °F 30 in SW 8.1 mph 8.1 mph 46 % 0 in
19:54 79.9 °F 57.4 °F 30 in SW 6.4 mph 6.4 mph 46 % 0 in
19:55 70.2 °F 59.5 °F 30.1 in Calm   1 mph 69 % 0 in
19:59 79.3 °F 57.4 °F 30 in SSW 3.5 mph 3.5 mph 47 % 0 in
20:04 79.2 °F 57.2 °F 30 in WSW 5.8 mph 5.8 mph 47 % 0 in
20:05 70 °F 59.7 °F 30.1 in Calm     70 % 0 in
20:09 78.8 °F 57.4 °F 30 in SSW 5.8 mph 5.8 mph 48 % 0 in
20:14 78.6 °F 57.4 °F 30 in WSW 4.6 mph 4.6 mph 48 % 0 in
20:15 78.6 °F 57.4 °F 30 in SW 2.9 mph 2.9 mph 48 % 0 in
20:20 78.3 °F 57 °F 30 in SW 3.5 mph 3.5 mph 48 % 0 in
20:25 78.1 °F 56.8 °F 30 in SSW 4.6 mph 4.6 mph 48 % 0 in
20:30 77.9 °F 57.2 °F 30 in South 3.5 mph 3.5 mph 49 % 0 in
20:35 77.5 °F 56.8 °F 30 in SW 3.5 mph 3.5 mph 49 % 0 in
20:40 77.4 °F 56.7 °F 30 in SSW 4.6 mph 4.6 mph 49 % 0 in
20:45 77 °F 56.5 °F 30 in SW 3.5 mph 3.5 mph 49 % 0 in
20:50 76.6 °F 56.7 °F 30 in SW 4.6 mph 4.6 mph 50 % 0 in
20:55 76.3 °F 56.8 °F 30 in WSW 3.5 mph 3.5 mph 51 % 0 in
21:00 76.1 °F 56.7 °F 30 in SW 4.6 mph 4.6 mph 51 % 0 in
21:05 75.9 °F 57 °F 30 in SW 4.6 mph 4.6 mph 52 % 0 in
21:10 75.7 °F 56.8 °F 30 in SW 3.8 mph 3.8 mph 52 % 0 in
21:15 75.4 °F 57 °F 30 in SW 5.6 mph 5.6 mph 53 % 0 in
21:20 75 °F 57.2 °F 30 in SSW 3.5 mph 3.5 mph 54 % 0 in
21:25 74.8 °F 57.6 °F 30 in West 3.5 mph 3.5 mph 55 % 0 in
21:30 74.7 °F 57.4 °F 30 in WSW 2.3 mph 2.3 mph 55 % 0 in
21:35 74.5 °F 57.7 °F 30 in WSW 2.3 mph 2.3 mph 56 % 0 in
21:40 74.1 °F 57.4 °F 30 in WSW 2.4 mph 2.4 mph 56 % 0 in
21:45 73.9 °F 57.7 °F 30 in WSW 2.6 mph 2.6 mph 57 % 0 in
21:50 73.6 °F 57.4 °F 30 in SW 4.6 mph 4.6 mph 57 % 0 in
21:51 73.6 °F 57.4 °F 30 in SW 2.3 mph 2.3 mph 57 % 0 in
21:55 67.6 °F 59.7 °F 30.1 in Calm   2 mph 76 % 0 in
21:56 73.2 °F 57.6 °F 30 in WSW 3.5 mph 3.5 mph 58 % 0 in
22:01 73.2 °F 57.9 °F 30 in WSW 3.5 mph 3.5 mph 59 % 0 in
22:05 67.3 °F 59.5 °F 30.1 in Calm     76 % 0 in
22:06 73 °F 57.9 °F 30 in WSW 3.5 mph 3.5 mph 59 % 0 in
22:11 72.9 °F 58.3 °F 30 in SSW 3.5 mph 3.5 mph 60 % 0 in
22:15 67.1 °F 59.5 °F 30.1 in Calm     77 % 0 in
22:16 72.7 °F 57.9 °F 30.1 in WSW 2.9 mph 2.9 mph 60 % 0 in
22:21 72.7 °F 58.5 °F 30.1 in WSW 2.6 mph 2.6 mph 61 % 0 in
22:25 66.9 °F 59.5 °F 30.1 in Calm     77 % 0 in
22:26 72.7 °F 58.5 °F 30.1 in SW 4.6 mph 4.6 mph 61 % 0 in
22:31 72.5 °F 58.6 °F 30.1 in SW 4.6 mph 4.6 mph 62 % 0 in
22:35 66.9 °F 59.5 °F 30 in NE 1 mph 2 mph 77 % 0 in
22:36 72.5 °F 59.2 °F 30.1 in SW 2.4 mph 2.4 mph 63 % 0 in
22:41 72.3 °F 59 °F 30.1 in SW 2.6 mph 2.6 mph 63 % 0 in
22:45 66.7 °F 59.4 °F 30 in Calm   1 mph 77 % 0 in
22:46 72.1 °F 59.4 °F 30.1 in WSW 2.3 mph 2.3 mph 64 % 0 in
22:51 72.1 °F 59.4 °F 30.1 in SSW 3.5 mph 3.5 mph 64 % 0 in
22:55 66.9 °F 59.5 °F 30 in Calm     77 % 0 in
22:56 72 °F 59.2 °F 30.1 in WSW 2.6 mph 2.6 mph 64 % 0 in
23:01 71.8 °F 58.8 °F 30 in SW 3.5 mph 3.5 mph 64 % 0 in
23:05 66.7 °F 59.4 °F 30 in Calm     77 % 0 in
23:06 71.8 °F 59.4 °F 30 in SW 2.3 mph 2.3 mph 65 % 0 in
23:11 71.6 °F 59.2 °F 30 in SSW 2.3 mph 2.3 mph 65 % 0 in
23:15 66.6 °F 59.5 °F 30 in Calm     78 % 0 in
23:16 71.4 °F 59.5 °F 30.1 in SW 2.3 mph 2.3 mph 66 % 0 in
23:21 71.4 °F 59.5 °F 30.1 in WSW 2.3 mph 2.3 mph 66 % 0 in
23:25 66.2 °F 59.2 °F 30 in Calm   2 mph 78 % 0 in
23:26 71.2 °F 59.7 °F 30.1 in SW 1.4 mph 1.4 mph 67 % 0 in
23:31 71.1 °F 59.5 °F 30.1 in SW 2.3 mph 2.3 mph 67 % 0 in
23:35 66 °F 59.7 °F 30 in Calm     80 % 0 in
23:36 71.1 °F 59.5 °F 30.1 in SW 1.2 mph 1.2 mph 67 % 0 in
23:41 71.1 °F 59.5 °F 30.1 in SW 2.4 mph 2.4 mph 67 % 0 in
23:45 65.8 °F 59.5 °F 30 in SW 1 mph 1 mph 80 % 0 in
23:46 71.1 °F 59.5 °F 30.1 in West 2.3 mph 2.3 mph 67 % 0 in
23:51 71.1 °F 59.5 °F 30.1 in WSW 2 mph 2 mph 67 % 0 in
23:55 65.8 °F 59.5 °F 30 in Calm   1 mph 80 % 0 in
23:56 71.1 °F 59.5 °F 30.1 in West 2.3 mph 2.3 mph 67 % 0 in
Meteo Sesrovires
Elogis d' Weather Underground - 3.75 mb

Guio original per  Jim McMurry - jmcmurry@mwt.net Adaptat per a la plantilla per  Wim van der Kuil - Leuven-Template.eu

Trobareu la nostra informacio del temps tambe a:

Weather Underground

AWEKAS